createdAt,value
2017-06-16T00:00:21.039Z,96.30
2017-06-16T00:02:48.595Z,96.50
2017-06-16T00:05:16.086Z,96.60
2017-06-16T00:07:43.531Z,96.70
2017-06-16T00:10:11.915Z,97.30
2017-06-16T00:12:39.359Z,96.80
2017-06-16T00:15:06.829Z,97.00
2017-06-16T00:17:34.354Z,97.30
2017-06-16T00:20:01.872Z,97.20
2017-06-16T00:22:30.096Z,97.60
2017-06-16T00:24:57.650Z,97.50
2017-06-16T00:27:25.102Z,97.40
2017-06-16T00:29:53.463Z,97.60
2017-06-16T00:32:20.938Z,97.70
2017-06-16T00:34:48.390Z,97.70
2017-06-16T00:37:15.830Z,97.90
2017-06-16T00:39:43.266Z,98.10
2017-06-16T00:42:10.702Z,98.20
2017-06-16T00:44:38.904Z,98.30
2017-06-16T00:47:06.363Z,98.30
2017-06-16T00:49:33.850Z,98.50
2017-06-16T00:52:01.285Z,98.50
2017-06-16T00:54:28.763Z,98.60
2017-06-16T00:56:56.187Z,98.70
2017-06-16T00:59:23.703Z,98.80
2017-06-16T01:01:51.243Z,98.90
2017-06-16T01:04:18.792Z,98.80
2017-06-16T01:06:46.225Z,99.00
2017-06-16T01:09:13.710Z,99.10
2017-06-16T01:11:41.140Z,99.10
2017-06-16T01:14:08.615Z,99.30
2017-06-16T01:16:36.172Z,99.40
2017-06-16T01:19:03.643Z,99.40
2017-06-16T01:21:31.096Z,99.60
2017-06-16T01:23:58.535Z,99.70
2017-06-16T01:26:26.116Z,99.70
2017-06-16T01:28:53.574Z,99.60
2017-06-16T01:31:21.106Z,99.90
2017-06-16T01:33:48.531Z,99.90
2017-06-16T01:36:16.027Z,99.90
2017-06-16T01:38:43.495Z,99.90
2017-06-16T01:41:10.936Z,99.90
2017-06-16T01:43:38.375Z,99.90
2017-06-16T01:46:05.875Z,99.90
2017-06-16T01:48:33.319Z,99.90
2017-06-16T01:51:00.766Z,99.90
2017-06-16T01:53:28.204Z,99.90
2017-06-16T01:55:55.643Z,99.90
2017-06-16T01:58:23.155Z,99.90
2017-06-16T02:00:50.719Z,99.90
2017-06-16T02:03:18.255Z,99.90
2017-06-16T02:05:45.709Z,99.90
2017-06-16T02:08:13.191Z,99.90
2017-06-16T02:10:40.722Z,99.90
2017-06-16T02:13:08.191Z,99.90
2017-06-16T02:15:35.730Z,99.90
2017-06-16T02:18:03.180Z,99.90
2017-06-16T02:20:30.696Z,99.90
2017-06-16T02:22:58.927Z,99.90
2017-06-16T02:25:26.359Z,99.90
2017-06-16T02:27:53.851Z,99.90
2017-06-16T02:30:21.291Z,99.90
2017-06-16T02:32:48.748Z,99.90
2017-06-16T02:35:16.538Z,99.90
2017-06-16T02:37:44.020Z,99.90
2017-06-16T02:40:11.545Z,99.90
2017-06-16T02:42:39.006Z,99.90
2017-06-16T02:45:06.545Z,99.90
2017-06-16T02:47:34.008Z,99.90
2017-06-16T02:50:01.459Z,99.90
2017-06-16T02:52:28.912Z,99.90
2017-06-16T02:54:56.402Z,99.90
2017-06-16T02:57:23.928Z,99.90
2017-06-16T02:59:51.379Z,99.90
2017-06-16T03:02:18.831Z,99.90
2017-06-16T03:04:46.274Z,99.90
2017-06-16T03:07:13.726Z,99.90
2017-06-16T03:09:41.211Z,99.90
2017-06-16T03:12:08.690Z,99.90
2017-06-16T03:14:36.110Z,99.90
2017-06-16T03:17:03.806Z,99.90
2017-06-16T03:19:31.240Z,99.90
2017-06-16T03:21:58.686Z,99.90
2017-06-16T03:24:41.982Z,99.90
2017-06-16T03:27:10.302Z,99.90
2017-06-16T03:29:37.732Z,99.90
2017-06-16T03:32:05.175Z,99.90
2017-06-16T03:34:32.682Z,99.90
2017-06-16T03:37:00.138Z,99.90
2017-06-16T03:39:27.573Z,99.90
2017-06-16T03:41:55.046Z,99.90
2017-06-16T03:44:22.503Z,99.90
2017-06-16T03:46:49.951Z,99.90
2017-06-16T03:49:17.400Z,99.90
2017-06-16T03:51:44.860Z,99.90
2017-06-16T03:54:12.321Z,99.90
2017-06-16T03:56:39.781Z,99.90
2017-06-16T03:59:07.259Z,99.90
2017-06-16T04:01:34.784Z,99.90
2017-06-16T04:04:02.246Z,99.90
2017-06-16T04:06:29.686Z,99.90
2017-06-16T04:08:57.202Z,99.90
2017-06-16T04:11:25.513Z,99.90
2017-06-16T04:13:52.983Z,99.90
2017-06-16T04:16:20.414Z,99.90
2017-06-16T04:18:48.305Z,99.90
2017-06-16T04:21:15.826Z,99.90
2017-06-16T04:23:44.074Z,99.90
2017-06-16T04:26:11.525Z,99.90
2017-06-16T04:28:38.987Z,99.90
2017-06-16T04:31:06.435Z,99.90
2017-06-16T04:33:33.866Z,99.90
2017-06-16T04:36:01.322Z,99.90
2017-06-16T04:38:29.073Z,99.90
2017-06-16T04:40:56.626Z,99.90
2017-06-16T04:43:24.525Z,99.90
2017-06-16T04:45:51.994Z,99.90
2017-06-16T04:48:19.993Z,99.90
2017-06-16T04:50:47.535Z,99.90
2017-06-16T04:53:15.912Z,99.90
2017-06-16T04:55:43.459Z,99.90
2017-06-16T04:58:10.934Z,99.90
2017-06-16T05:00:39.244Z,99.90
2017-06-16T05:03:06.676Z,99.90
2017-06-16T05:05:34.137Z,99.90
2017-06-16T05:08:01.647Z,99.90
2017-06-16T05:10:29.107Z,99.90
2017-06-16T05:12:56.554Z,99.90
2017-06-16T05:15:24.006Z,99.90
2017-06-16T05:17:51.954Z,99.90
2017-06-16T05:20:19.374Z,99.90
2017-06-16T05:22:52.549Z,99.90
2017-06-16T05:25:20.006Z,99.90
2017-06-16T05:27:47.646Z,99.90
2017-06-16T05:30:15.299Z,99.90
2017-06-16T05:32:42.810Z,99.90
2017-06-16T05:35:10.292Z,99.90
2017-06-16T05:37:37.863Z,99.90
2017-06-16T05:40:05.455Z,99.90
2017-06-16T05:42:32.903Z,99.90
2017-06-16T05:45:00.445Z,99.90
2017-06-16T05:47:28.037Z,99.90
2017-06-16T05:49:55.558Z,99.90
2017-06-16T05:52:23.029Z,99.90
2017-06-16T05:54:50.462Z,99.10
2017-06-16T05:57:17.955Z,99.30
2017-06-16T05:59:45.570Z,99.00
2017-06-16T06:02:13.086Z,98.60
2017-06-16T06:04:41.331Z,98.60
2017-06-16T06:07:08.869Z,98.30
2017-06-16T06:09:36.458Z,98.00
2017-06-16T06:12:03.936Z,98.20
2017-06-16T06:14:32.388Z,98.20
2017-06-16T06:16:59.803Z,98.20
2017-06-16T06:19:27.246Z,98.40
2017-06-16T06:21:54.674Z,98.50
2017-06-16T06:24:22.903Z,98.40
2017-06-16T06:26:50.367Z,98.40
2017-06-16T06:29:17.908Z,98.20
2017-06-16T06:31:45.487Z,98.00
2017-06-16T06:34:12.984Z,97.50
2017-06-16T06:36:41.202Z,97.80
2017-06-16T06:39:08.666Z,97.20
2017-06-16T06:41:36.101Z,97.50
2017-06-16T06:44:03.582Z,98.00
2017-06-16T06:46:31.064Z,97.20
2017-06-16T06:48:58.510Z,96.60
2017-06-16T06:51:25.935Z,96.50
2017-06-16T06:53:53.410Z,96.90
2017-06-16T06:56:20.868Z,96.50
2017-06-16T06:58:48.425Z,96.30
2017-06-16T07:01:15.892Z,95.30
2017-06-16T07:03:43.331Z,95.60
2017-06-16T07:06:10.798Z,95.00
2017-06-16T07:08:38.279Z,94.90
2017-06-16T07:11:05.904Z,95.10
2017-06-16T07:13:33.325Z,94.70
2017-06-16T07:16:00.803Z,93.60
2017-06-16T07:18:28.311Z,93.90
2017-06-16T07:20:55.766Z,94.10
2017-06-16T07:23:23.290Z,93.10
2017-06-16T07:25:50.736Z,93.00
2017-06-16T07:28:18.174Z,92.50
2017-06-16T07:30:45.679Z,92.60
2017-06-16T07:33:13.123Z,93.30
2017-06-16T07:35:40.579Z,93.00
2017-06-16T07:38:08.114Z,93.10
2017-06-16T07:40:35.542Z,93.70
2017-06-16T07:43:02.977Z,93.90
2017-06-16T07:45:31.223Z,92.90
2017-06-16T07:47:58.662Z,92.90
2017-06-16T07:50:26.138Z,92.70
2017-06-16T07:52:53.616Z,93.20
2017-06-16T07:55:21.055Z,93.20
2017-06-16T07:57:48.523Z,93.50
2017-06-16T08:00:15.978Z,94.00
2017-06-16T08:02:43.445Z,94.40
2017-06-16T08:05:10.882Z,93.90
2017-06-16T08:07:38.326Z,92.90
2017-06-16T08:10:05.786Z,92.40
2017-06-16T08:12:33.230Z,92.50
2017-06-16T08:15:01.511Z,92.60
2017-06-16T08:17:28.949Z,92.70
2017-06-16T08:19:56.451Z,92.50
2017-06-16T08:22:23.978Z,92.50
2017-06-16T08:24:51.446Z,92.20
2017-06-16T08:27:18.926Z,92.40
2017-06-16T08:29:46.363Z,92.90
2017-06-16T08:32:13.802Z,93.00
2017-06-16T08:34:41.282Z,93.20
2017-06-16T08:37:08.905Z,93.30
2017-06-16T08:39:36.507Z,93.50
2017-06-16T08:42:04.043Z,94.20
2017-06-16T08:44:31.482Z,95.00
2017-06-16T08:46:58.918Z,95.00
2017-06-16T08:49:26.346Z,95.00
2017-06-16T08:51:54.615Z,94.60
2017-06-16T08:54:22.063Z,94.50
2017-06-16T08:56:49.555Z,94.10
2017-06-16T08:59:17.005Z,93.80
2017-06-16T09:01:45.203Z,92.90
2017-06-16T09:04:13.067Z,92.80
2017-06-16T09:06:40.509Z,92.50
2017-06-16T09:09:07.971Z,92.20
2017-06-16T09:11:35.416Z,92.40
2017-06-16T09:14:02.942Z,92.30
2017-06-16T09:16:30.375Z,92.20
2017-06-16T09:18:57.851Z,92.50
2017-06-16T09:21:25.311Z,93.80
2017-06-16T09:23:52.847Z,96.60
2017-06-16T09:26:20.309Z,99.90
2017-06-16T09:28:47.759Z,99.90
2017-06-16T09:31:15.219Z,99.90
2017-06-16T09:33:42.767Z,99.90
2017-06-16T09:36:10.190Z,99.90
2017-06-16T09:38:37.879Z,99.90
2017-06-16T09:41:05.347Z,99.90
2017-06-16T09:43:32.815Z,99.90
2017-06-16T09:46:00.347Z,99.90
2017-06-16T09:48:27.842Z,99.90
2017-06-16T09:50:55.336Z,99.90
2017-06-16T09:53:22.831Z,99.90
2017-06-16T09:55:50.308Z,99.90
2017-06-16T09:58:17.743Z,99.90
2017-06-16T10:00:45.201Z,99.90
2017-06-16T10:03:12.642Z,98.60
2017-06-16T10:05:40.083Z,98.30
2017-06-16T10:08:07.567Z,98.30
2017-06-16T10:10:35.058Z,99.80
2017-06-16T10:13:02.503Z,99.90
2017-06-16T10:15:29.947Z,99.90
2017-06-16T10:17:57.381Z,99.90
2017-06-16T10:20:24.815Z,99.90
2017-06-16T10:22:52.416Z,99.90
2017-06-16T10:25:19.871Z,99.90
2017-06-16T10:27:47.320Z,99.40
2017-06-16T10:30:14.763Z,99.40
2017-06-16T10:32:42.223Z,99.30
2017-06-16T10:35:09.686Z,98.10
2017-06-16T10:37:37.179Z,97.10
2017-06-16T10:40:04.630Z,97.30
2017-06-16T10:42:32.074Z,96.80
2017-06-16T10:44:59.544Z,96.40
2017-06-16T10:47:27.007Z,95.70
2017-06-16T10:49:54.460Z,95.10
2017-06-16T10:52:22.020Z,94.10
2017-06-16T10:54:49.467Z,93.70
2017-06-16T10:57:16.904Z,93.30
2017-06-16T10:59:44.371Z,93.70
2017-06-16T11:02:11.798Z,91.60
2017-06-16T11:04:39.289Z,91.20
2017-06-16T11:07:06.741Z,90.50
2017-06-16T11:09:34.395Z,90.80
2017-06-16T11:12:01.843Z,90.50
2017-06-16T11:14:29.383Z,90.20
2017-06-16T11:16:56.854Z,90.40
2017-06-16T11:19:24.310Z,90.80
2017-06-16T11:21:51.955Z,90.20
2017-06-16T11:24:19.539Z,90.50
2017-06-16T11:26:47.119Z,90.30
2017-06-16T11:29:14.546Z,90.60
2017-06-16T11:31:42.018Z,90.50
2017-06-16T11:34:09.450Z,90.80
2017-06-16T11:36:36.911Z,90.80
2017-06-16T11:39:04.351Z,90.60
2017-06-16T11:41:31.787Z,91.00
2017-06-16T11:43:59.278Z,90.30
2017-06-16T11:46:26.742Z,90.00
2017-06-16T11:48:54.199Z,90.60
2017-06-16T11:51:21.635Z,91.20
2017-06-16T11:53:49.062Z,91.10
2017-06-16T11:56:16.534Z,91.80
2017-06-16T11:58:44.010Z,92.20
2017-06-16T12:01:11.475Z,92.10
2017-06-16T12:03:38.955Z,92.60
2017-06-16T12:06:06.526Z,91.60
2017-06-16T12:08:33.970Z,91.40
2017-06-16T12:11:01.411Z,92.20
2017-06-16T12:13:28.872Z,91.90
2017-06-16T12:15:56.387Z,92.40
2017-06-16T12:18:23.889Z,92.00
2017-06-16T12:20:51.347Z,91.00
2017-06-16T12:23:18.781Z,91.70
2017-06-16T12:25:46.266Z,91.90
2017-06-16T12:28:13.718Z,92.50
2017-06-16T12:30:41.152Z,92.70
2017-06-16T12:33:08.610Z,92.40
2017-06-16T12:35:36.079Z,91.20
2017-06-16T12:38:03.520Z,91.60
2017-06-16T12:40:31.107Z,92.00
2017-06-16T12:42:58.534Z,92.20
2017-06-16T12:45:26.009Z,91.40
2017-06-16T12:47:53.452Z,91.70
2017-06-16T12:50:20.936Z,91.30
2017-06-16T12:52:48.466Z,91.70
2017-06-16T12:55:15.921Z,92.20
2017-06-16T12:57:43.399Z,93.40
2017-06-16T13:00:10.865Z,94.00
2017-06-16T13:02:38.427Z,93.50
2017-06-16T13:05:05.886Z,92.40
2017-06-16T13:07:33.323Z,92.80
2017-06-16T13:10:00.759Z,92.50
2017-06-16T13:12:28.224Z,92.60
2017-06-16T13:14:55.651Z,92.40
2017-06-16T13:17:23.216Z,92.50
2017-06-16T13:19:50.704Z,92.30
2017-06-16T13:22:18.245Z,91.50
2017-06-16T13:24:45.662Z,91.80
2017-06-16T13:27:13.112Z,92.20
2017-06-16T13:29:41.294Z,92.50
2017-06-16T13:32:08.904Z,92.40
2017-06-16T13:34:36.346Z,92.20
2017-06-16T13:37:03.893Z,91.60
2017-06-16T13:39:31.318Z,92.20
2017-06-16T13:41:58.821Z,93.50
2017-06-16T13:44:26.250Z,94.40
2017-06-16T13:46:53.701Z,95.90
2017-06-16T13:49:21.146Z,95.40
2017-06-16T13:51:48.590Z,95.00
2017-06-16T13:54:16.838Z,94.30
2017-06-16T13:56:44.282Z,94.30
2017-06-16T13:59:11.769Z,94.80
2017-06-16T14:01:39.970Z,96.00
2017-06-16T14:04:07.504Z,95.90
2017-06-16T14:06:35.062Z,96.30
2017-06-16T14:09:03.379Z,95.30
2017-06-16T14:11:30.835Z,95.30
2017-06-16T14:13:58.386Z,95.70
2017-06-16T14:16:25.818Z,95.70
2017-06-16T14:18:54.067Z,95.70
2017-06-16T14:21:21.510Z,95.60
2017-06-16T14:23:48.978Z,95.70
2017-06-16T14:26:16.407Z,95.50
2017-06-16T14:28:43.882Z,95.70
2017-06-16T14:31:11.323Z,95.90
2017-06-16T14:33:38.907Z,96.30
2017-06-16T14:36:06.354Z,96.70
2017-06-16T14:38:33.944Z,96.60
2017-06-16T14:41:01.464Z,96.40
2017-06-16T14:43:28.918Z,96.50
2017-06-16T14:45:56.362Z,96.00
2017-06-16T14:48:23.798Z,95.70
2017-06-16T14:50:51.235Z,95.30
2017-06-16T14:53:18.686Z,95.20
2017-06-16T14:55:46.883Z,95.10
2017-06-16T14:58:14.322Z,95.00
2017-06-16T15:00:41.790Z,94.80
2017-06-16T15:03:09.255Z,95.00
2017-06-16T15:05:36.749Z,95.40
2017-06-16T15:08:04.275Z,95.50
2017-06-16T15:10:31.690Z,94.60
2017-06-16T15:12:59.130Z,93.90
2017-06-16T15:15:26.566Z,94.80
2017-06-16T15:17:54.017Z,94.40
2017-06-16T15:20:21.510Z,93.90
2017-06-16T15:22:49.764Z,93.70
2017-06-16T15:25:17.327Z,93.50
2017-06-16T15:27:44.786Z,92.70
2017-06-16T15:30:12.220Z,91.90
2017-06-16T15:32:39.764Z,92.20
2017-06-16T15:35:07.318Z,92.60
2017-06-16T15:37:34.738Z,92.00
2017-06-16T15:40:02.984Z,92.20
2017-06-16T15:42:30.504Z,92.20
2017-06-16T15:44:57.979Z,92.00
2017-06-16T15:47:25.410Z,92.80
2017-06-16T15:49:52.882Z,92.20
2017-06-16T15:52:20.370Z,92.10
2017-06-16T15:54:48.092Z,91.50
2017-06-16T15:57:15.567Z,91.60
2017-06-16T15:59:43.004Z,91.30
2017-06-16T16:02:10.483Z,91.30
2017-06-16T16:04:37.966Z,91.20
2017-06-16T16:07:05.392Z,91.00
2017-06-16T16:09:32.854Z,91.50
2017-06-16T16:12:00.309Z,91.00
2017-06-16T16:14:27.743Z,91.40
2017-06-16T16:16:55.162Z,92.70
2017-06-16T16:19:23.390Z,93.40
2017-06-16T16:21:50.823Z,93.40
2017-06-16T16:24:18.287Z,92.90
2017-06-16T16:26:45.716Z,93.30
2017-06-16T16:29:13.223Z,94.00
2017-06-16T16:31:40.688Z,94.60
2017-06-16T16:34:08.147Z,94.70
2017-06-16T16:36:35.715Z,93.30
2017-06-16T16:39:03.228Z,92.20
2017-06-16T16:41:30.694Z,92.30
2017-06-16T16:43:58.122Z,93.30
2017-06-16T16:46:25.580Z,93.60
2017-06-16T16:48:53.027Z,93.30
2017-06-16T16:51:20.458Z,94.20
2017-06-16T16:53:48.726Z,95.40
2017-06-16T16:56:16.191Z,95.00
2017-06-16T16:58:43.810Z,95.50
2017-06-16T17:01:11.370Z,95.30
2017-06-16T17:03:38.810Z,95.40
2017-06-16T17:06:06.282Z,95.00
2017-06-16T17:08:33.702Z,95.30
2017-06-16T17:11:01.282Z,95.80
2017-06-16T17:13:28.890Z,95.30
2017-06-16T17:15:56.530Z,95.40
2017-06-16T17:18:24.075Z,95.30
2017-06-16T17:20:51.515Z,95.50
2017-06-16T17:23:18.982Z,95.00
2017-06-16T17:25:46.446Z,94.30
2017-06-16T17:28:13.908Z,94.70
2017-06-16T17:30:41.390Z,95.10
2017-06-16T17:33:09.002Z,95.90
2017-06-16T17:35:36.478Z,96.20
2017-06-16T17:38:04.019Z,96.60
2017-06-16T17:40:31.502Z,96.80
2017-06-16T17:42:58.930Z,97.00
2017-06-16T17:45:26.434Z,96.90
2017-06-16T17:47:53.883Z,97.30
2017-06-16T17:50:21.328Z,97.10
2017-06-16T17:52:48.774Z,97.60
2017-06-16T17:55:16.227Z,97.70
2017-06-16T17:57:43.718Z,98.00
2017-06-16T18:00:11.156Z,98.20
2017-06-16T18:02:38.596Z,98.50
2017-06-16T18:05:06.065Z,98.60
2017-06-16T18:07:33.498Z,98.50
2017-06-16T18:10:00.935Z,99.00
2017-06-16T18:12:28.423Z,99.40
2017-06-16T18:14:55.897Z,99.20
2017-06-16T18:17:23.434Z,99.40
2017-06-16T18:19:50.995Z,99.30
2017-06-16T18:22:18.536Z,99.20
2017-06-16T18:24:46.003Z,99.20
2017-06-16T18:27:13.438Z,98.90
2017-06-16T18:29:40.932Z,99.20
2017-06-16T18:32:08.387Z,99.10
2017-06-16T18:34:35.843Z,99.20
2017-06-16T18:37:03.298Z,99.20
2017-06-16T18:39:30.759Z,99.00
2017-06-16T18:41:58.214Z,98.90
2017-06-16T18:44:25.783Z,98.80
2017-06-16T18:46:53.231Z,98.80
2017-06-16T18:49:20.675Z,98.90
2017-06-16T18:51:48.163Z,99.10
2017-06-16T18:54:15.715Z,99.30
2017-06-16T18:56:43.282Z,99.30
2017-06-16T18:59:10.805Z,99.50
2017-06-16T19:01:38.347Z,99.40
2017-06-16T19:04:05.837Z,99.70
2017-06-16T19:06:33.362Z,99.80
2017-06-16T19:09:00.834Z,99.80
2017-06-16T19:11:28.284Z,99.90
2017-06-16T19:13:55.742Z,99.90
2017-06-16T19:16:23.216Z,99.80
2017-06-16T19:18:50.667Z,99.90
2017-06-16T19:21:18.099Z,99.90
2017-06-16T19:23:45.530Z,99.90
2017-06-16T19:26:12.972Z,99.90
2017-06-16T19:28:41.286Z,99.90
2017-06-16T19:31:08.770Z,99.90
2017-06-16T19:33:36.212Z,99.90
2017-06-16T19:36:03.758Z,99.90
2017-06-16T19:38:31.206Z,99.90
2017-06-16T19:40:58.631Z,99.90
2017-06-16T19:43:26.839Z,99.90
2017-06-16T19:45:54.342Z,99.90
2017-06-16T19:48:21.855Z,99.90
2017-06-16T19:50:49.328Z,99.90
2017-06-16T19:53:16.803Z,99.90
2017-06-16T19:55:44.428Z,99.90
2017-06-16T19:58:11.907Z,99.90
2017-06-16T20:00:39.339Z,99.90
2017-06-16T20:03:06.900Z,99.90
2017-06-16T20:05:34.391Z,99.90
2017-06-16T20:08:01.862Z,99.90
2017-06-16T20:10:29.312Z,99.90
2017-06-16T20:12:57.303Z,99.90
2017-06-16T20:15:25.535Z,99.90
2017-06-16T20:17:52.975Z,99.90
2017-06-16T20:20:20.410Z,99.90
2017-06-16T20:22:47.883Z,99.90
2017-06-16T20:25:16.310Z,99.90
2017-06-16T20:27:44.524Z,99.90
2017-06-16T20:30:11.994Z,99.90
2017-06-16T20:32:39.434Z,99.90
2017-06-16T20:35:06.870Z,99.90
2017-06-16T20:37:35.075Z,99.90
2017-06-16T20:40:02.518Z,99.90
2017-06-16T20:42:30.132Z,99.90
2017-06-16T20:44:57.701Z,99.90
2017-06-16T20:47:25.152Z,99.90
2017-06-16T20:49:52.608Z,99.90
2017-06-16T20:52:20.138Z,99.90
2017-06-16T20:54:47.586Z,99.90
2017-06-16T20:57:15.035Z,99.90
2017-06-16T20:59:42.477Z,99.90
2017-06-16T21:02:09.951Z,99.90
2017-06-16T21:04:37.394Z,99.90
2017-06-16T21:07:04.824Z,99.90
2017-06-16T21:09:33.075Z,99.90
2017-06-16T21:12:00.621Z,99.90
2017-06-16T21:14:28.195Z,99.90
2017-06-16T21:16:55.683Z,99.90
2017-06-16T21:19:23.155Z,99.90
2017-06-16T21:22:05.460Z,99.90
2017-06-16T21:24:32.942Z,99.90
2017-06-16T21:27:00.379Z,99.90
2017-06-16T21:29:27.938Z,99.90
2017-06-16T21:31:55.380Z,99.90
2017-06-16T21:34:22.870Z,99.90
2017-06-16T21:36:50.410Z,99.90
2017-06-16T21:39:17.834Z,99.90
2017-06-16T21:41:46.065Z,99.90
2017-06-16T21:44:13.639Z,99.90
2017-06-16T21:46:41.088Z,99.90
2017-06-16T21:49:08.546Z,99.90
2017-06-16T21:51:36.093Z,99.90
2017-06-16T21:54:03.570Z,99.90
2017-06-16T21:56:31.014Z,99.90
2017-06-16T21:58:58.687Z,99.90
2017-06-16T22:01:26.130Z,99.90
2017-06-16T22:03:53.571Z,99.90
2017-06-16T22:06:21.160Z,99.90
2017-06-16T22:08:48.622Z,99.90
2017-06-16T22:11:16.947Z,99.90
2017-06-16T22:13:44.462Z,99.90
2017-06-16T22:16:12.676Z,99.90
2017-06-16T22:18:40.102Z,99.90
2017-06-16T22:21:07.610Z,99.90
2017-06-16T22:23:35.152Z,99.90
2017-06-16T22:26:02.631Z,99.90
2017-06-16T22:28:30.080Z,99.90
2017-06-16T22:30:57.594Z,99.90
2017-06-16T22:33:25.778Z,99.90
2017-06-16T22:35:53.215Z,99.90
2017-06-16T22:38:21.479Z,99.90
2017-06-16T22:40:49.098Z,99.90
2017-06-16T22:43:16.540Z,99.90
2017-06-16T22:45:44.003Z,99.90
2017-06-16T22:48:11.503Z,99.90
2017-06-16T22:50:38.939Z,99.90
2017-06-16T22:53:06.387Z,99.90
2017-06-16T22:55:33.939Z,99.90
2017-06-16T22:58:01.396Z,99.90
2017-06-16T23:00:29.038Z,99.90
2017-06-16T23:02:56.563Z,99.90
2017-06-16T23:05:24.047Z,99.90
2017-06-16T23:07:51.532Z,99.90
2017-06-16T23:10:19.560Z,99.90
2017-06-16T23:12:47.075Z,99.90
2017-06-16T23:15:14.642Z,99.90
2017-06-16T23:17:42.119Z,99.90
2017-06-16T23:20:10.346Z,99.90
2017-06-16T23:22:37.807Z,99.90
2017-06-16T23:25:05.242Z,99.90
2017-06-16T23:27:32.712Z,99.90
2017-06-16T23:30:00.175Z,99.90
2017-06-16T23:32:27.634Z,99.90
2017-06-16T23:34:55.094Z,99.90
2017-06-16T23:37:22.526Z,99.90
2017-06-16T23:39:49.963Z,99.90
2017-06-16T23:42:17.460Z,99.90
2017-06-16T23:44:44.888Z,99.90
2017-06-16T23:47:12.374Z,99.90
2017-06-16T23:49:39.843Z,99.90
2017-06-16T23:52:07.383Z,99.90
2017-06-16T23:54:34.863Z,99.90
2017-06-16T23:57:02.347Z,99.90
2017-06-16T23:59:30.558Z,99.90
